createdAt,value
2022-11-04T00:00:15.401Z,0
2022-11-04T00:01:14.909Z,1.04
2022-11-04T00:02:15.556Z,1.84
2022-11-04T00:03:15.589Z,1.04
2022-11-04T00:04:15.743Z,1.84
2022-11-04T00:05:15.949Z,0
2022-11-04T00:06:16.044Z,2.8
2022-11-04T00:07:16.161Z,1.2
2022-11-04T00:08:16.351Z,1.44
2022-11-04T00:09:16.679Z,0
2022-11-04T00:10:16.600Z,1.2
2022-11-04T00:11:16.704Z,2.24
2022-11-04T00:12:16.848Z,1.04
2022-11-04T00:13:16.990Z,1.84
2022-11-04T00:14:17.111Z,0
2022-11-04T00:15:17.510Z,0
2022-11-04T00:16:17.098Z,0
2022-11-04T00:17:17.616Z,0
2022-11-04T00:18:17.447Z,0
2022-11-04T00:19:17.928Z,0.64
2022-11-04T00:20:18.371Z,1.2
2022-11-04T00:21:18.218Z,1.04
2022-11-04T00:22:18.373Z,0
2022-11-04T00:23:18.526Z,0
2022-11-04T00:24:18.677Z,0
2022-11-04T00:25:18.839Z,0
2022-11-04T00:26:18.978Z,1.04
2022-11-04T00:27:19.058Z,2
2022-11-04T00:28:19.229Z,1.04
2022-11-04T00:29:19.347Z,2.4
2022-11-04T00:30:19.611Z,1.04
2022-11-04T00:31:19.230Z,2.64
2022-11-04T00:32:19.696Z,2.8
2022-11-04T00:33:19.889Z,2.64
2022-11-04T00:34:19.611Z,1.44
2022-11-04T00:35:20.125Z,2
2022-11-04T00:36:20.193Z,1.6
2022-11-04T00:37:20.406Z,2.4
2022-11-04T00:38:20.546Z,2
2022-11-04T00:39:20.796Z,1.44
2022-11-04T00:40:20.901Z,2.8
2022-11-04T00:41:21.057Z,1.04
2022-11-04T00:42:21.220Z,0.8
2022-11-04T00:43:21.310Z,2.24
2022-11-04T00:44:21.393Z,2
2022-11-04T00:45:21.708Z,1.6
2022-11-04T00:46:21.247Z,1.6
2022-11-04T00:47:21.744Z,2.8
2022-11-04T00:48:21.865Z,2.64
2022-11-04T00:49:22.048Z,2
2022-11-04T00:50:22.166Z,1.04
2022-11-04T00:51:22.305Z,0.8
2022-11-04T00:52:22.422Z,1.6
2022-11-04T00:53:22.932Z,1.84
2022-11-04T00:54:22.710Z,1.6
2022-11-04T00:55:22.881Z,1.6
2022-11-04T00:56:23.077Z,1.6
2022-11-04T00:57:23.239Z,1.44
2022-11-04T00:58:23.336Z,2
2022-11-04T00:59:23.540Z,1.6
2022-11-04T01:00:23.860Z,0
2022-11-04T01:01:23.533Z,2.8
2022-11-04T01:02:24.009Z,1.84
2022-11-04T01:03:24.026Z,0
2022-11-04T01:04:24.293Z,1.6
2022-11-04T01:05:24.377Z,1.6
2022-11-04T01:06:24.504Z,1.04
2022-11-04T01:07:24.644Z,1.6
2022-11-04T01:08:24.811Z,1.44
2022-11-04T01:09:25.100Z,1.44
2022-11-04T01:10:25.163Z,1.04
2022-11-04T01:11:25.314Z,0.8
2022-11-04T01:12:25.515Z,2.24
2022-11-04T01:13:25.611Z,2.24
2022-11-04T01:14:25.804Z,1.44
2022-11-04T01:15:26.112Z,1.04
2022-11-04T01:16:25.611Z,1.04
2022-11-04T01:17:26.310Z,1.84
2022-11-04T01:18:26.216Z,1.2
2022-11-04T01:19:26.413Z,0
2022-11-04T01:20:26.502Z,0
2022-11-04T01:21:26.620Z,0
2022-11-04T01:22:26.771Z,0
2022-11-04T01:23:26.943Z,0
2022-11-04T01:24:27.121Z,1.6
2022-11-04T01:25:27.718Z,0
2022-11-04T01:26:27.434Z,0
2022-11-04T01:27:27.580Z,0
2022-11-04T01:28:27.790Z,0
2022-11-04T01:29:27.988Z,0
2022-11-04T01:30:27.930Z,0
2022-11-04T01:31:28.185Z,0
2022-11-04T01:32:28.345Z,0
2022-11-04T01:33:28.436Z,0
2022-11-04T01:34:28.624Z,1.04
2022-11-04T01:35:28.777Z,1.44
2022-11-04T01:36:28.849Z,1.04
2022-11-04T01:37:28.994Z,0
2022-11-04T01:38:29.193Z,1.6
2022-11-04T01:39:29.381Z,1.84
2022-11-04T01:40:29.558Z,1.6
2022-11-04T01:41:29.656Z,1.44
2022-11-04T01:42:29.758Z,1.84
2022-11-04T01:43:29.953Z,3.44
2022-11-04T01:44:30.111Z,1.2
2022-11-04T01:45:30.405Z,2
2022-11-04T01:46:29.948Z,0
2022-11-04T01:47:30.521Z,0
2022-11-04T01:48:30.711Z,0
2022-11-04T01:49:30.873Z,0
2022-11-04T01:50:30.921Z,0
2022-11-04T01:51:31.068Z,0
2022-11-04T01:52:31.217Z,1.84
2022-11-04T01:53:31.373Z,2
2022-11-04T01:54:31.521Z,1.44
2022-11-04T01:55:31.648Z,0
2022-11-04T01:56:31.812Z,0
2022-11-04T01:57:31.960Z,0
2022-11-04T01:58:31.819Z,0
2022-11-04T01:59:32.345Z,0
2022-11-04T02:00:32.685Z,0
2022-11-04T02:01:32.319Z,0
2022-11-04T02:02:32.870Z,0
2022-11-04T02:03:32.843Z,0
2022-11-04T02:04:32.942Z,0
2022-11-04T02:05:33.093Z,0
2022-11-04T02:06:32.896Z,0.8
2022-11-04T02:07:33.021Z,0
2022-11-04T02:08:33.454Z,0
2022-11-04T02:09:33.697Z,0
2022-11-04T02:10:33.800Z,0
2022-11-04T02:11:33.955Z,0
2022-11-04T02:12:34.061Z,0
2022-11-04T02:13:34.254Z,0
2022-11-04T02:14:34.410Z,0
2022-11-04T02:15:34.859Z,0
2022-11-04T02:16:34.342Z,0
2022-11-04T02:17:34.816Z,0
2022-11-04T02:18:34.968Z,0
2022-11-04T02:19:35.259Z,0
2022-11-04T02:20:35.340Z,0
2022-11-04T02:21:35.668Z,0
2022-11-04T02:22:35.677Z,0
2022-11-04T02:23:35.436Z,0
2022-11-04T02:24:35.853Z,0
2022-11-04T02:25:35.961Z,0
2022-11-04T02:26:36.123Z,0
2022-11-04T02:27:36.229Z,0
2022-11-04T02:28:36.049Z,0
2022-11-04T02:29:36.725Z,0
2022-11-04T02:30:36.340Z,0.8
2022-11-04T02:31:36.839Z,0
2022-11-04T02:32:36.559Z,0
2022-11-04T02:33:36.701Z,0
2022-11-04T02:34:36.809Z,0
2022-11-04T02:35:36.902Z,0
2022-11-04T02:36:37.792Z,0
2022-11-04T02:37:37.598Z,0
2022-11-04T02:38:37.711Z,0
2022-11-04T02:39:38.047Z,0
2022-11-04T02:40:38.021Z,0
2022-11-04T02:41:38.151Z,0
2022-11-04T02:42:38.203Z,0
2022-11-04T02:43:38.327Z,0
2022-11-04T02:44:38.705Z,0
2022-11-04T02:45:38.283Z,0
2022-11-04T02:46:38.438Z,0
2022-11-04T02:47:38.961Z,0
2022-11-04T02:48:39.097Z,0
2022-11-04T02:49:39.282Z,0
2022-11-04T02:50:39.399Z,0
2022-11-04T02:51:39.576Z,0
2022-11-04T02:52:39.732Z,0
2022-11-04T02:53:39.946Z,0
2022-11-04T02:54:40.075Z,0
2022-11-04T02:55:40.236Z,0
2022-11-04T02:56:40.378Z,0
2022-11-04T02:57:40.525Z,1.2
2022-11-04T02:58:40.582Z,1.44
2022-11-04T02:59:40.889Z,0
2022-11-04T03:00:40.469Z,1.04
2022-11-04T03:01:41.027Z,0
2022-11-04T03:02:41.066Z,0
2022-11-04T03:03:40.881Z,0
2022-11-04T03:04:41.338Z,0
2022-11-04T03:05:41.473Z,0
2022-11-04T03:06:41.627Z,0
2022-11-04T03:07:41.771Z,0
2022-11-04T03:08:41.952Z,0
2022-11-04T03:09:42.201Z,0
2022-11-04T03:10:42.300Z,0
2022-11-04T03:11:42.409Z,0
2022-11-04T03:12:42.609Z,0.8
2022-11-04T03:13:42.716Z,1.2
2022-11-04T03:14:43.104Z,2
2022-11-04T03:15:42.637Z,1.04
2022-11-04T03:16:43.093Z,1.6
2022-11-04T03:17:43.260Z,1.6
2022-11-04T03:18:43.374Z,2
2022-11-04T03:19:43.564Z,1.44
2022-11-04T03:20:43.665Z,1.44
2022-11-04T03:21:43.816Z,0.8
2022-11-04T03:22:43.924Z,1.2
2022-11-04T03:23:44.115Z,0.8
2022-11-04T03:24:44.284Z,0.8
2022-11-04T03:25:44.429Z,1.04
2022-11-04T03:26:44.652Z,0
2022-11-04T03:27:44.845Z,1.04
2022-11-04T03:28:45.035Z,1.44
2022-11-04T03:29:45.400Z,1.2
2022-11-04T03:30:44.820Z,2
2022-11-04T03:31:45.386Z,2
2022-11-04T03:32:45.542Z,1.2
2022-11-04T03:33:45.690Z,1.2
2022-11-04T03:34:45.845Z,1.84
2022-11-04T03:35:45.607Z,1.44
2022-11-04T03:36:45.771Z,2
2022-11-04T03:37:46.510Z,1.04
2022-11-04T03:38:46.349Z,0.8
2022-11-04T03:39:46.522Z,1.44
2022-11-04T03:40:46.611Z,2.64
2022-11-04T03:41:46.889Z,1.6
2022-11-04T03:42:47.009Z,1.84
2022-11-04T03:43:46.813Z,2
2022-11-04T03:44:47.557Z,1.6
2022-11-04T03:45:46.992Z,1.2
2022-11-04T03:46:47.565Z,2
2022-11-04T03:47:47.692Z,1.2
2022-11-04T03:48:47.759Z,0.8
2022-11-04T03:49:47.953Z,1.44
2022-11-04T03:50:48.033Z,2.24
2022-11-04T03:51:48.177Z,2
2022-11-04T03:52:48.362Z,1.44
2022-11-04T03:53:48.109Z,1.04
2022-11-04T03:54:48.246Z,1.44
2022-11-04T03:55:48.402Z,0
2022-11-04T03:56:48.631Z,1.04
2022-11-04T03:57:48.706Z,2
2022-11-04T03:58:48.844Z,1.44
2022-11-04T03:59:49.495Z,0
2022-11-04T04:00:49.237Z,1.04
2022-11-04T04:01:49.800Z,0.8
2022-11-04T04:02:49.839Z,1.2
2022-11-04T04:03:50.000Z,2.24
2022-11-04T04:04:50.149Z,1.04
2022-11-04T04:05:50.291Z,0
2022-11-04T04:06:50.445Z,0
2022-11-04T04:07:50.542Z,2
2022-11-04T04:08:50.726Z,0
2022-11-04T04:09:50.627Z,0
2022-11-04T04:10:51.651Z,0
2022-11-04T04:11:51.112Z,0
2022-11-04T04:12:51.284Z,0
2022-11-04T04:13:51.407Z,0
2022-11-04T04:14:51.853Z,0
2022-11-04T04:15:51.329Z,1.04
2022-11-04T04:16:51.439Z,0
2022-11-04T04:17:52.014Z,0
2022-11-04T04:18:53.990Z,0
2022-11-04T04:19:52.269Z,0
2022-11-04T04:20:52.496Z,0
2022-11-04T04:21:52.578Z,0
2022-11-04T04:22:52.717Z,0
2022-11-04T04:23:52.872Z,1.04
2022-11-04T04:24:53.026Z,0
2022-11-04T04:25:53.126Z,0
2022-11-04T04:26:53.286Z,0
2022-11-04T04:27:53.477Z,0
2022-11-04T04:28:53.629Z,0
2022-11-04T04:29:53.991Z,0
2022-11-04T04:30:57.727Z,0
2022-11-04T04:31:54.286Z,0
2022-11-04T04:32:54.552Z,0
2022-11-04T04:33:54.393Z,0
2022-11-04T04:34:54.492Z,0
2022-11-04T04:35:54.690Z,0
2022-11-04T04:36:54.807Z,0
2022-11-04T04:37:54.950Z,0
2022-11-04T04:38:55.095Z,0
2022-11-04T04:39:55.166Z,0
2022-11-04T04:40:55.365Z,0
2022-11-04T04:41:55.548Z,0
2022-11-04T04:42:55.897Z,0
2022-11-04T04:43:55.804Z,0
2022-11-04T04:44:56.163Z,0
2022-11-04T04:45:55.732Z,0
2022-11-04T04:46:56.264Z,0
2022-11-04T04:47:56.463Z,0
2022-11-04T04:48:56.610Z,0
2022-11-04T04:49:56.718Z,0
2022-11-04T04:50:56.821Z,0
2022-11-04T04:51:57.045Z,0
2022-11-04T04:52:57.128Z,0
2022-11-04T04:53:57.219Z,0
2022-11-04T04:54:57.303Z,0
2022-11-04T04:55:57.413Z,0
2022-11-04T04:56:57.534Z,0
2022-11-04T04:57:57.727Z,0
2022-11-04T04:58:57.865Z,0
2022-11-04T04:59:58.186Z,0
2022-11-04T05:00:57.844Z,0
2022-11-04T05:01:58.379Z,0
2022-11-04T05:02:58.343Z,0
2022-11-04T05:03:58.489Z,0
2022-11-04T05:04:58.671Z,0
2022-11-04T05:05:58.937Z,0
2022-11-04T05:06:58.990Z,0
2022-11-04T05:07:59.149Z,0
2022-11-04T05:08:59.257Z,0
2022-11-04T05:09:59.438Z,0
2022-11-04T05:10:59.551Z,0
2022-11-04T05:11:59.786Z,0
2022-11-04T05:12:59.803Z,0
2022-11-04T05:13:59.905Z,0
2022-11-04T05:15:00.215Z,0
2022-11-04T05:15:59.745Z,0
2022-11-04T05:17:00.252Z,0
2022-11-04T05:18:00.400Z,0
2022-11-04T05:19:00.539Z,0
2022-11-04T05:20:00.739Z,0
2022-11-04T05:21:00.815Z,0
2022-11-04T05:22:01.099Z,0
2022-11-04T05:23:01.215Z,0
2022-11-04T05:24:01.377Z,0
2022-11-04T05:25:01.560Z,0
2022-11-04T05:26:01.633Z,0
2022-11-04T05:27:01.791Z,0
2022-11-04T05:28:01.960Z,0
2022-11-04T05:29:02.134Z,0
2022-11-04T05:30:02.463Z,0
2022-11-04T05:31:02.012Z,0
2022-11-04T05:32:02.113Z,0
2022-11-04T05:33:04.591Z,0
2022-11-04T05:34:02.726Z,0
2022-11-04T05:35:02.837Z,0
2022-11-04T05:36:02.992Z,0
2022-11-04T05:37:03.101Z,0
2022-11-04T05:38:03.317Z,0
2022-11-04T05:39:03.455Z,0
2022-11-04T05:40:03.156Z,0
2022-11-04T05:41:03.254Z,0
2022-11-04T05:42:03.409Z,0
2022-11-04T05:43:03.554Z,0
2022-11-04T05:44:04.190Z,0
2022-11-04T05:45:04.508Z,0
2022-11-04T05:46:04.046Z,0
2022-11-04T05:47:04.193Z,0
2022-11-04T05:48:04.747Z,0
2022-11-04T05:49:04.492Z,0
2022-11-04T05:50:04.976Z,0
2022-11-04T05:51:05.121Z,0
2022-11-04T05:52:05.280Z,0
2022-11-04T05:53:05.426Z,0
2022-11-04T05:54:05.670Z,0
2022-11-04T05:55:05.439Z,0
2022-11-04T05:56:06.277Z,0
2022-11-04T05:57:06.091Z,0
2022-11-04T05:58:06.476Z,0
2022-11-04T05:59:05.955Z,0
2022-11-04T06:00:06.768Z,0
2022-11-04T06:01:06.198Z,0
2022-11-04T06:02:06.918Z,0
2022-11-04T06:03:09.400Z,0
2022-11-04T06:04:07.038Z,0
2022-11-04T06:05:07.097Z,0
2022-11-04T06:06:07.198Z,0
2022-11-04T06:07:07.496Z,0
2022-11-04T06:08:08.257Z,0
2022-11-04T06:09:07.557Z,0
2022-11-04T06:10:07.950Z,0
2022-11-04T06:11:07.530Z,0
2022-11-04T06:12:07.632Z,0
2022-11-04T06:13:07.781Z,0
2022-11-04T06:14:08.343Z,0
2022-11-04T06:15:08.706Z,0
2022-11-04T06:16:08.139Z,0
2022-11-04T06:17:08.735Z,0
2022-11-04T06:18:08.987Z,0
2022-11-04T06:19:12.066Z,0
2022-11-04T06:20:08.746Z,0
2022-11-04T06:21:09.319Z,0
2022-11-04T06:22:09.147Z,0
2022-11-04T06:23:09.587Z,0
2022-11-04T06:24:09.732Z,0
2022-11-04T06:25:09.876Z,0
2022-11-04T06:26:09.977Z,0
2022-11-04T06:27:10.129Z,0
2022-11-04T06:28:10.703Z,0
2022-11-04T06:29:10.436Z,0
2022-11-04T06:30:10.795Z,0
2022-11-04T06:31:10.361Z,0
2022-11-04T06:32:10.890Z,0
2022-11-04T06:33:11.091Z,0
2022-11-04T06:34:11.321Z,0
2022-11-04T06:35:11.446Z,0
2022-11-04T06:36:11.545Z,0
2022-11-04T06:37:11.592Z,0
2022-11-04T06:38:11.931Z,0
2022-11-04T06:39:11.895Z,0
2022-11-04T06:40:12.048Z,0
2022-11-04T06:41:12.186Z,0
2022-11-04T06:42:12.283Z,0
2022-11-04T06:43:12.449Z,0
2022-11-04T06:44:12.652Z,0
2022-11-04T06:45:13.157Z,0
2022-11-04T06:46:12.687Z,0
2022-11-04T06:47:13.177Z,0
2022-11-04T06:48:13.299Z,0
2022-11-04T06:49:13.417Z,0
2022-11-04T06:50:13.630Z,0
2022-11-04T06:51:13.731Z,0
2022-11-04T06:52:13.883Z,0
2022-11-04T06:53:14.029Z,0
2022-11-04T06:54:14.235Z,0
2022-11-04T06:55:14.405Z,0
2022-11-04T06:56:14.487Z,0
2022-11-04T06:57:14.575Z,0
2022-11-04T06:58:14.688Z,0
2022-11-04T06:59:14.788Z,0
2022-11-04T07:00:15.179Z,0
2022-11-04T07:01:18.673Z,0
2022-11-04T07:02:15.267Z,0
2022-11-04T07:03:15.289Z,0
2022-11-04T07:04:15.418Z,0
2022-11-04T07:05:15.541Z,0
2022-11-04T07:06:15.646Z,0
2022-11-04T07:07:15.719Z,0
2022-11-04T07:08:15.843Z,0
2022-11-04T07:09:15.986Z,0
2022-11-04T07:10:16.197Z,0
2022-11-04T07:11:16.354Z,0
2022-11-04T07:12:16.452Z,0
2022-11-04T07:13:16.604Z,0
2022-11-04T07:14:16.772Z,0
2022-11-04T07:15:17.254Z,0
2022-11-04T07:16:16.691Z,0
2022-11-04T07:17:17.195Z,0
2022-11-04T07:18:17.310Z,0
2022-11-04T07:19:17.433Z,0
2022-11-04T07:20:17.634Z,0
2022-11-04T07:21:17.744Z,0
2022-11-04T07:22:17.921Z,0
2022-11-04T07:23:18.078Z,0
2022-11-04T07:24:18.272Z,0
2022-11-04T07:25:18.423Z,0
2022-11-04T07:26:18.532Z,0
2022-11-04T07:27:18.723Z,0
2022-11-04T07:28:18.830Z,0
2022-11-04T07:29:19.191Z,0
2022-11-04T07:30:19.292Z,0
2022-11-04T07:31:18.824Z,0
2022-11-04T07:32:19.352Z,0
2022-11-04T07:33:19.518Z,0
2022-11-04T07:34:19.737Z,0
2022-11-04T07:35:19.843Z,0
2022-11-04T07:36:19.995Z,0
2022-11-04T07:37:20.095Z,0
2022-11-04T07:38:20.275Z,0
2022-11-04T07:39:20.394Z,0
2022-11-04T07:40:20.534Z,0
2022-11-04T07:41:20.707Z,0
2022-11-04T07:42:20.856Z,0
2022-11-04T07:43:21.060Z,0
2022-11-04T07:44:21.257Z,0
2022-11-04T07:45:21.557Z,0
2022-11-04T07:46:21.044Z,0
2022-11-04T07:47:21.567Z,0
2022-11-04T07:48:21.759Z,0
2022-11-04T07:49:21.819Z,0
2022-11-04T07:50:22.093Z,0
2022-11-04T07:51:22.209Z,0
2022-11-04T07:52:22.327Z,0
2022-11-04T07:53:22.468Z,0
2022-11-04T07:54:22.619Z,0
2022-11-04T07:55:22.751Z,0
2022-11-04T07:56:22.873Z,0
2022-11-04T07:57:22.979Z,0
2022-11-04T07:58:23.126Z,0
2022-11-04T07:59:23.283Z,0
2022-11-04T08:00:23.686Z,0
2022-11-04T08:01:23.305Z,0
2022-11-04T08:02:26.676Z,0
2022-11-04T08:03:23.962Z,0
2022-11-04T08:04:24.120Z,0
2022-11-04T08:05:24.168Z,0
2022-11-04T08:06:24.354Z,0
2022-11-04T08:07:24.492Z,0
2022-11-04T08:08:24.697Z,0
2022-11-04T08:09:24.926Z,0
2022-11-04T08:10:25.064Z,0
2022-11-04T08:11:25.158Z,0
2022-11-04T08:12:25.256Z,0
2022-11-04T08:13:25.357Z,0
2022-11-04T08:14:25.610Z,0
2022-11-04T08:15:25.891Z,0
2022-11-04T08:16:28.780Z,0
2022-11-04T08:17:25.967Z,0
2022-11-04T08:18:26.122Z,0
2022-11-04T08:19:26.324Z,0
2022-11-04T08:20:26.452Z,0
2022-11-04T08:21:26.191Z,0
2022-11-04T08:22:31.789Z,0
2022-11-04T08:23:26.825Z,0
2022-11-04T08:24:27.079Z,0
2022-11-04T08:25:27.184Z,0
2022-11-04T08:26:27.288Z,0
2022-11-04T08:27:27.432Z,0
2022-11-04T08:28:27.626Z,0
2022-11-04T08:29:27.737Z,0
2022-11-04T08:30:28.065Z,0
2022-11-04T08:31:27.611Z,0
2022-11-04T08:32:27.756Z,0
2022-11-04T08:33:28.220Z,0
2022-11-04T08:34:28.418Z,0
2022-11-04T08:35:28.748Z,0
2022-11-04T08:36:28.600Z,0
2022-11-04T08:37:28.782Z,0
2022-11-04T08:38:28.948Z,0
2022-11-04T08:39:29.083Z,0
2022-11-04T08:40:29.230Z,0
2022-11-04T08:41:29.365Z,0
2022-11-04T08:42:29.503Z,0
2022-11-04T08:43:29.603Z,1.44
2022-11-04T08:44:30.084Z,0
2022-11-04T08:45:33.606Z,0
2022-11-04T08:46:29.589Z,0
2022-11-04T08:47:30.204Z,0
2022-11-04T08:48:30.260Z,0
2022-11-04T08:49:30.376Z,0
2022-11-04T08:50:30.500Z,0
2022-11-04T08:51:30.656Z,0.8
2022-11-04T08:52:30.780Z,0
2022-11-04T08:53:30.954Z,0
2022-11-04T08:54:31.133Z,0
2022-11-04T08:55:31.288Z,0
2022-11-04T08:56:31.428Z,0
2022-11-04T08:57:31.512Z,0
2022-11-04T08:58:31.630Z,0
2022-11-04T08:59:31.831Z,0
2022-11-04T09:00:32.243Z,0
2022-11-04T09:01:35.561Z,0
2022-11-04T09:02:32.290Z,0
2022-11-04T09:03:32.457Z,0
2022-11-04T09:04:32.575Z,0
2022-11-04T09:05:32.641Z,0
2022-11-04T09:06:32.822Z,0
2022-11-04T09:07:32.944Z,0
2022-11-04T09:08:32.713Z,0
2022-11-04T09:09:33.200Z,0
2022-11-04T09:10:33.355Z,0
2022-11-04T09:11:33.581Z,0.8
2022-11-04T09:12:33.771Z,0
2022-11-04T09:13:39.186Z,0
2022-11-04T09:14:33.545Z,0
2022-11-04T09:15:34.218Z,0
2022-11-04T09:16:33.833Z,0
2022-11-04T09:17:33.937Z,0
2022-11-04T09:18:34.080Z,0
2022-11-04T09:19:34.235Z,0
2022-11-04T09:20:34.346Z,0
2022-11-04T09:21:34.491Z,0
2022-11-04T09:22:35.226Z,0
2022-11-04T09:23:35.349Z,0
2022-11-04T09:24:35.290Z,0
2022-11-04T09:25:35.423Z,0
2022-11-04T09:26:35.541Z,0
2022-11-04T09:27:35.685Z,0
2022-11-04T09:28:35.884Z,0
2022-11-04T09:29:36.232Z,0
2022-11-04T09:30:35.726Z,0
2022-11-04T09:31:36.285Z,0
2022-11-04T09:32:36.388Z,0
2022-11-04T09:33:36.550Z,0
2022-11-04T09:34:36.789Z,0
2022-11-04T09:35:36.848Z,0
2022-11-04T09:36:36.948Z,0
2022-11-04T09:37:37.105Z,0
2022-11-04T09:38:37.256Z,0
2022-11-04T09:39:37.600Z,0
2022-11-04T09:40:37.161Z,0
2022-11-04T09:41:37.665Z,0
2022-11-04T09:42:37.787Z,0
2022-11-04T09:43:37.913Z,0
2022-11-04T09:44:53.577Z,0
2022-11-04T09:45:37.888Z,0
2022-11-04T09:46:38.402Z,0
2022-11-04T09:47:38.561Z,0
2022-11-04T09:48:38.662Z,0
2022-11-04T09:49:38.813Z,0
2022-11-04T09:50:38.950Z,0
2022-11-04T09:51:53.578Z,0
2022-11-04T09:52:39.318Z,0
2022-11-04T09:53:39.425Z,0
2022-11-04T09:54:43.102Z,0
2022-11-04T09:55:39.726Z,0
2022-11-04T09:56:39.868Z,0
2022-11-04T09:57:40.114Z,0
2022-11-04T09:58:40.178Z,0
2022-11-04T09:59:40.513Z,0
2022-11-04T10:00:40.165Z,0
2022-11-04T10:01:40.356Z,0
2022-11-04T10:02:40.525Z,0
2022-11-04T10:03:40.896Z,0
2022-11-04T10:04:40.700Z,0
2022-11-04T10:05:41.408Z,0
2022-11-04T10:06:41.295Z,0
2022-11-04T10:07:41.398Z,0
2022-11-04T10:08:41.552Z,0
2022-11-04T10:09:41.802Z,0
2022-11-04T10:10:41.898Z,0
2022-11-04T10:11:42.031Z,0
2022-11-04T10:12:42.114Z,0
2022-11-04T10:13:42.251Z,0
2022-11-04T10:14:43.295Z,0
2022-11-04T10:15:42.182Z,0
2022-11-04T10:16:42.757Z,0
2022-11-04T10:17:42.437Z,0
2022-11-04T10:18:42.923Z,0
2022-11-04T10:19:43.128Z,0
2022-11-04T10:20:44.041Z,0
2022-11-04T10:21:43.416Z,0
2022-11-04T10:22:43.501Z,0
2022-11-04T10:23:43.680Z,0
2022-11-04T10:24:43.407Z,0
2022-11-04T10:25:43.565Z,0
2022-11-04T10:26:44.117Z,0
2022-11-04T10:27:44.193Z,0
2022-11-04T10:28:44.386Z,0
2022-11-04T10:29:44.734Z,0
2022-11-04T10:30:44.265Z,0
2022-11-04T10:31:44.801Z,0
2022-11-04T10:32:44.937Z,0
2022-11-04T10:33:45.120Z,0
2022-11-04T10:34:45.293Z,0
2022-11-04T10:35:45.494Z,0
2022-11-04T10:36:45.593Z,0
2022-11-04T10:37:45.698Z,0
2022-11-04T10:38:45.851Z,0
2022-11-04T10:39:45.947Z,0
2022-11-04T10:40:46.102Z,0
2022-11-04T10:41:46.355Z,0
2022-11-04T10:42:46.339Z,0
2022-11-04T10:43:46.522Z,0
2022-11-04T10:44:47.060Z,0
2022-11-04T10:45:46.445Z,0
2022-11-04T10:46:46.615Z,0
2022-11-04T10:47:47.600Z,0
2022-11-04T10:48:47.258Z,0
2022-11-04T10:50:07.112Z,0
2022-11-04T10:50:47.627Z,0
2022-11-04T10:51:47.740Z,0
2022-11-04T10:52:47.970Z,0
2022-11-04T10:53:48.067Z,0
2022-11-04T10:54:48.178Z,0
2022-11-04T10:55:48.285Z,0
2022-11-04T10:56:48.379Z,0.8
2022-11-04T10:57:48.526Z,0
2022-11-04T10:58:48.592Z,0
2022-11-04T10:59:48.466Z,0
2022-11-04T11:00:49.261Z,0
2022-11-04T11:01:48.769Z,0
2022-11-04T11:02:49.244Z,0
2022-11-04T11:03:49.345Z,0
2022-11-04T11:04:49.006Z,0
2022-11-04T11:05:49.804Z,0
2022-11-04T11:06:49.695Z,0
2022-11-04T11:07:49.895Z,0
2022-11-04T11:08:50.000Z,0
2022-11-04T11:09:53.709Z,0
2022-11-04T11:10:50.397Z,0
2022-11-04T11:11:50.555Z,0
2022-11-04T11:12:51.823Z,0
2022-11-04T11:13:50.753Z,0
2022-11-04T11:14:51.094Z,0
2022-11-04T11:15:50.628Z,0
2022-11-04T11:16:51.110Z,0
2022-11-04T11:17:51.290Z,0
2022-11-04T11:18:51.421Z,0
2022-11-04T11:19:51.262Z,0
2022-11-04T11:20:51.680Z,0
2022-11-04T11:21:51.828Z,0
2022-11-04T11:22:51.967Z,0
2022-11-04T11:23:52.108Z,0
2022-11-04T11:24:52.273Z,0
2022-11-04T11:25:52.423Z,0
2022-11-04T11:26:52.537Z,0
2022-11-04T11:27:52.808Z,0
2022-11-04T11:28:57.560Z,0
2022-11-04T11:29:53.287Z,0
2022-11-04T11:30:52.809Z,0
2022-11-04T11:31:53.369Z,0
2022-11-04T11:32:53.436Z,0
2022-11-04T11:33:53.532Z,0
2022-11-04T11:34:53.743Z,0
2022-11-04T11:35:53.893Z,0
2022-11-04T11:36:54.037Z,0
2022-11-04T11:37:54.200Z,0
2022-11-04T11:38:54.249Z,0
2022-11-04T11:39:54.360Z,0
2022-11-04T11:41:18.624Z,0
2022-11-04T11:41:54.652Z,0
2022-11-04T11:42:54.803Z,0
2022-11-04T11:43:55.164Z,0
2022-11-04T11:44:55.457Z,0
2022-11-04T11:45:54.886Z,0
2022-11-04T11:46:55.047Z,0
2022-11-04T11:47:55.591Z,0
2022-11-04T11:48:55.698Z,0
2022-11-04T11:49:55.879Z,0
2022-11-04T11:50:56.025Z,0
2022-11-04T11:51:56.170Z,0
2022-11-04T11:52:56.372Z,0
2022-11-04T11:53:56.660Z,0
2022-11-04T11:54:56.676Z,0
2022-11-04T11:55:56.722Z,0
2022-11-04T11:57:12.968Z,0
2022-11-04T12:01:03.383Z,0
2022-11-04T12:01:57.406Z,0
2022-11-04T12:02:57.992Z,0
2022-11-04T12:06:19.196Z,0
2022-11-04T12:09:59.306Z,0
2022-11-04T12:10:58.859Z,0
2022-11-04T12:11:59.010Z,0
2022-11-04T12:12:59.076Z,0
2022-11-04T12:13:59.209Z,0
2022-11-04T12:14:59.510Z,0
2022-11-04T12:15:59.137Z,0
2022-11-04T12:16:59.644Z,0
2022-11-04T12:17:59.817Z,0
2022-11-04T12:18:59.915Z,0
2022-11-04T12:20:00.097Z,0
2022-11-04T12:21:00.175Z,0.8
2022-11-04T12:22:00.292Z,0
2022-11-04T12:23:00.433Z,0
2022-11-04T12:24:00.571Z,0
2022-11-04T12:25:00.675Z,0
2022-11-04T12:26:00.828Z,0
2022-11-04T12:27:01.361Z,0
2022-11-04T12:28:01.233Z,0
2022-11-04T12:29:01.327Z,0
2022-11-04T12:30:01.641Z,0
2022-11-04T12:31:01.171Z,0
2022-11-04T12:32:01.266Z,0
2022-11-04T12:33:01.408Z,0
2022-11-04T12:34:01.556Z,0
2022-11-04T12:35:01.673Z,0
2022-11-04T12:36:01.815Z,0
2022-11-04T12:37:02.643Z,0
2022-11-04T12:38:03.379Z,0
2022-11-04T12:39:02.652Z,0
2022-11-04T12:40:02.799Z,0
2022-11-04T12:41:28.004Z,0
2022-11-04T12:42:20.884Z,0
2022-11-04T12:43:03.214Z,0
2022-11-04T12:44:03.400Z,0
2022-11-04T12:45:03.740Z,0
2022-11-04T12:46:03.344Z,0
2022-11-04T12:47:03.866Z,0
2022-11-04T12:48:04.016Z,0
2022-11-04T12:49:07.139Z,0
2022-11-04T12:50:04.267Z,0
2022-11-04T12:51:04.389Z,0
2022-11-04T12:52:04.576Z,0
2022-11-04T12:53:04.686Z,0
2022-11-04T12:54:04.884Z,0
2022-11-04T12:55:05.022Z,0
2022-11-04T12:56:05.125Z,0
2022-11-04T12:57:05.271Z,0
2022-11-04T12:58:05.479Z,0
2022-11-04T12:59:05.561Z,0
2022-11-04T13:00:06.503Z,0
2022-11-04T13:01:06.884Z,0
2022-11-04T13:02:05.634Z,0
2022-11-04T13:03:05.672Z,0
2022-11-04T13:04:05.821Z,0
2022-11-04T13:05:05.975Z,0
2022-11-04T13:06:06.850Z,0
2022-11-04T13:07:06.609Z,0
2022-11-04T13:08:11.292Z,0
2022-11-04T13:09:06.904Z,0
2022-11-04T13:10:07.054Z,0
2022-11-04T13:11:07.255Z,0
2022-11-04T13:12:07.399Z,0
2022-11-04T13:13:07.869Z,0
2022-11-04T13:14:07.706Z,0
2022-11-04T13:15:08.001Z,0
2022-11-04T13:16:07.591Z,0
2022-11-04T13:17:07.711Z,0
2022-11-04T13:18:08.269Z,0
2022-11-04T13:19:08.425Z,0
2022-11-04T13:20:08.074Z,0
2022-11-04T13:21:08.620Z,0
2022-11-04T13:22:08.872Z,0
2022-11-04T13:23:09.255Z,0
2022-11-04T13:24:09.079Z,0
2022-11-04T13:25:09.133Z,0
2022-11-04T13:26:09.335Z,0
2022-11-04T13:27:09.580Z,0
2022-11-04T13:28:09.732Z,0
2022-11-04T13:29:09.597Z,0
2022-11-04T13:30:10.364Z,0
2022-11-04T13:31:09.773Z,0
2022-11-04T13:32:10.229Z,0
2022-11-04T13:33:10.559Z,0
2022-11-04T13:34:10.542Z,0
2022-11-04T13:35:10.740Z,0
2022-11-04T13:36:10.840Z,0
2022-11-04T13:37:11.045Z,0
2022-11-04T13:38:11.121Z,0
2022-11-04T13:39:11.224Z,0
2022-11-04T13:40:11.348Z,0
2022-11-04T13:41:12.807Z,0
2022-11-04T13:42:11.708Z,0
2022-11-04T13:43:11.861Z,0
2022-11-04T13:44:12.001Z,0
2022-11-04T13:45:12.303Z,0
2022-11-04T13:46:11.845Z,0
2022-11-04T13:47:12.308Z,0
2022-11-04T13:48:12.557Z,0
2022-11-04T13:49:12.662Z,0
2022-11-04T13:50:12.805Z,0
2022-11-04T13:51:12.924Z,0
2022-11-04T13:52:13.077Z,0
2022-11-04T13:53:13.271Z,0
2022-11-04T13:54:13.414Z,0
2022-11-04T13:55:13.528Z,0
2022-11-04T13:56:31.972Z,0
2022-11-04T13:57:13.396Z,0
2022-11-04T13:58:13.559Z,0
2022-11-04T13:59:14.237Z,0
2022-11-04T14:00:14.442Z,0
2022-11-04T14:01:14.115Z,0
2022-11-04T14:02:14.555Z,0
2022-11-04T14:03:14.658Z,0
2022-11-04T14:04:14.745Z,0
2022-11-04T14:05:14.913Z,0
2022-11-04T14:06:15.043Z,0
2022-11-04T14:07:15.150Z,0
2022-11-04T14:08:15.353Z,0
2022-11-04T14:09:15.592Z,0
2022-11-04T14:10:15.696Z,0
2022-11-04T14:11:15.853Z,0
2022-11-04T14:12:15.955Z,0
2022-11-04T14:13:15.673Z,0
2022-11-04T14:14:16.174Z,0
2022-11-04T14:15:15.936Z,0
2022-11-04T14:16:16.067Z,0
2022-11-04T14:17:16.911Z,0
2022-11-04T14:18:16.812Z,0
2022-11-04T14:19:16.992Z,0
2022-11-04T14:20:17.065Z,0
2022-11-04T14:21:17.213Z,0
2022-11-04T14:22:17.317Z,0
2022-11-04T14:23:17.492Z,0
2022-11-04T14:24:17.685Z,0
2022-11-04T14:25:17.827Z,0
2022-11-04T14:26:18.002Z,0
2022-11-04T14:27:18.032Z,0
2022-11-04T14:28:17.860Z,0
2022-11-04T14:29:17.951Z,0
2022-11-04T14:30:18.690Z,0
2022-11-04T14:31:18.227Z,0
2022-11-04T14:32:18.358Z,0
2022-11-04T14:33:18.851Z,0
2022-11-04T14:34:19.038Z,0
2022-11-04T14:35:19.122Z,0
2022-11-04T14:36:19.273Z,0
2022-11-04T14:37:19.041Z,0
2022-11-04T14:38:19.740Z,0
2022-11-04T14:39:19.597Z,0
2022-11-04T14:40:19.798Z,0
2022-11-04T14:41:19.853Z,0
2022-11-04T14:42:20.497Z,0
2022-11-04T14:43:20.207Z,0
2022-11-04T14:44:20.403Z,0
2022-11-04T14:45:20.698Z,0